Time;durP1;ratioP1;P1;durP2;ratioP2;P2;SDS_P1;SDS_P2;PMS_P1;PMS_P2;Temp;Humidity;BMP_temperature;BMP_pressure;BME280_temperature;BME280_humidity;BME280_pressure;Samples;Min_cycle;Max_cycle;Signal;HPM_P1;HPM_P2
2020/12/09 00:01:22;;;;;;;61.95;44.60;;;2.70;1.00;;;;;;5006989;28;20228;-75
2020/12/09 00:03:49;;;;;;;56.55;39.25;;;2.80;1.00;;;;;;5028084;28;21015;-75
2020/12/09 00:06:15;;;;;;;59.10;40.45;;;2.80;1.00;;;;;;5009985;28;20228;-74
2020/12/09 00:08:41;;;;;;;60.33;41.50;;;2.80;1.00;;;;;;5027883;28;20268;-74
2020/12/09 00:11:09;;;;;;;59.67;40.20;;;2.80;1.00;;;;;;5008219;28;20232;-74
2020/12/09 00:13:35;;;;;;;59.00;40.35;;;2.70;1.00;;;;;;5030380;28;20229;-75
2020/12/09 00:16:01;;;;;;;58.45;39.60;;;2.80;1.00;;;;;;5015143;28;20313;-75
2020/12/09 00:18:27;;;;;;;56.95;39.75;;;2.70;1.00;;;;;;5029618;28;20831;-74
2020/12/09 00:20:57;;;;;;;56.15;41.75;;;2.70;1.00;;;;;;5008858;28;20228;-74
2020/12/09 00:23:23;;;;;;;57.45;41.72;;;2.70;1.00;;;;;;5023455;28;20229;-74
2020/12/09 00:25:49;;;;;;;57.13;41.30;;;2.70;1.00;;;;;;5017847;28;20265;-75
2020/12/09 00:28:16;;;;;;;64.40;41.15;;;2.70;1.00;;;;;;5017383;28;20226;-73
2020/12/09 00:30:42;;;;;;;65.18;41.67;;;2.70;1.00;;;;;;5014099;28;20321;-74
2020/12/09 00:33:10;;;;;;;63.40;48.35;;;2.70;1.00;;;;;;5028270;28;21207;-74
2020/12/09 00:35:37;;;;;;;57.50;43.72;;;2.80;1.00;;;;;;5014667;28;20253;-75
2020/12/09 00:38:06;;;;;;;59.67;46.15;;;2.80;1.00;;;;;;5024957;28;20417;-74
2020/12/09 00:40:33;;;;;;;56.97;42.70;;;2.90;1.00;;;;;;5020020;28;20265;-74
2020/12/09 00:42:59;;;;;;;63.22;44.30;;;2.90;1.00;;;;;;5017331;28;20296;-73
2020/12/09 00:45:25;;;;;;;57.00;40.90;;;2.90;1.00;;;;;;5026094;28;20230;-72
2020/12/09 00:47:52;;;;;;;58.72;40.55;;;2.90;1.00;;;;;;5017450;28;20222;-75
2020/12/09 00:50:30;;;;;;;54.22;39.95;;;2.80;1.00;;;;;;5021518;28;20301;-75
2020/12/09 00:52:56;;;;;;;61.97;41.75;;;2.80;1.00;;;;;;5012975;28;20250;-74
2020/12/09 00:55:23;;;;;;;55.88;40.40;;;2.80;1.00;;;;;;5027312;28;20305;-73
2020/12/09 00:57:50;;;;;;;61.88;41.65;;;2.90;1.00;;;;;;5012514;28;20309;-73
2020/12/09 01:00:16;;;;;;;61.55;41.35;;;2.90;1.00;;;;;;5027465;28;20317;-75
2020/12/09 01:02:42;;;;;;;56.45;40.13;;;2.90;1.00;;;;;;5020270;28;20900;-75
2020/12/09 01:05:09;;;;;;;63.47;41.53;;;2.90;1.00;;;;;;5027272;28;20229;-73
2020/12/09 01:07:36;;;;;;;58.42;41.53;;;2.80;1.00;;;;;;4996979;28;20226;-75
2020/12/09 01:10:04;;;;;;;58.95;42.63;;;2.80;1.00;;;;;;5027446;28;20269;-74
2020/12/09 01:12:31;;;;;;;54.53;40.75;;;2.80;1.00;;;;;;5014668;28;20301;-73
2020/12/09 01:14:57;;;;;;;69.38;41.38;;;2.70;1.00;;;;;;5029635;28;20268;-75
2020/12/09 01:17:23;;;;;;;57.92;40.90;;;2.70;1.00;;;;;;5011259;28;20227;-75
2020/12/09 01:19:49;;;;;;;56.95;41.85;;;2.80;1.00;;;;;;4998901;28;20248;-74
2020/12/09 01:22:15;;;;;;;61.67;42.50;;;2.80;1.00;;;;;;5022853;28;20218;-75
2020/12/09 01:24:41;;;;;;;62.20;41.88;;;2.80;1.00;;;;;;5017706;28;20264;-76
2020/12/09 01:27:08;;;;;;;60.05;42.95;;;2.80;1.00;;;;;;5028311;28;20354;-75
2020/12/09 01:29:35;;;;;;;66.65;41.95;;;2.80;1.00;;;;;;5010096;28;20218;-75
2020/12/09 01:32:01;;;;;;;64.97;41.75;;;2.90;1.00;;;;;;5020862;28;20324;-74
2020/12/09 01:34:29;;;;;;;53.42;38.17;;;2.80;1.00;;;;;;5010277;28;20310;-76
2020/12/09 01:36:55;;;;;;;56.95;39.55;;;2.80;1.00;;;;;;5025654;28;20242;-74
2020/12/09 01:39:22;;;;;;;59.72;41.63;;;2.80;1.00;;;;;;5011637;28;20345;-74
2020/12/09 01:41:49;;;;;;;59.78;41.13;;;2.80;1.00;;;;;;5026323;28;20237;-75
2020/12/09 01:44:15;;;;;;;59.88;42.00;;;2.80;1.00;;;;;;4995277;28;20234;-75
2020/12/09 01:46:42;;;;;;;60.08;43.17;;;2.80;1.00;;;;;;5026080;28;20222;-75
2020/12/09 01:49:10;;;;;;;64.72;44.40;;;2.80;1.00;;;;;;5012574;28;20309;-75
2020/12/09 01:51:36;;;;;;;62.38;44.45;;;2.80;1.00;;;;;;5019384;28;20753;-73
2020/12/09 01:54:03;;;;;;;59.67;43.42;;;2.70;1.00;;;;;;4998397;28;20230;-73
2020/12/09 01:56:30;;;;;;;62.58;43.10;;;2.70;1.00;;;;;;5005217;28;20226;-73
2020/12/09 01:58:56;;;;;;;62.25;43.70;;;2.70;1.00;;;;;;5016987;28;20304;-74
2020/12/09 02:01:23;;;;;;;60.15;44.30;;;2.70;1.00;;;;;;5009392;28;20313;-73
2020/12/09 02:03:51;;;;;;;62.90;43.22;;;2.70;1.00;;;;;;5021052;28;20714;-74
2020/12/09 02:06:18;;;;;;;62.20;41.53;;;2.70;1.00;;;;;;5012305;28;20347;-74
2020/12/09 02:08:45;;;;;;;61.80;41.88;;;2.80;1.00;;;;;;5020284;28;20221;-75
2020/12/09 02:11:12;;;;;;;63.33;42.30;;;2.70;1.00;;;;;;5014225;28;20226;-73
2020/12/09 02:13:42;;;;;;;66.60;44.85;;;2.70;1.00;;;;;;5021709;28;20269;-73
2020/12/09 02:16:08;;;;;;;60.92;43.63;;;2.70;1.00;;;;;;5014519;28;21023;-75
2020/12/09 02:18:35;;;;;;;61.92;45.30;;;2.80;1.00;;;;;;5021251;28;20222;-75
2020/12/09 02:21:02;;;;;;;60.42;44.75;;;2.70;1.00;;;;;;5011757;28;21145;-75
2020/12/09 02:23:29;;;;;;;60.28;44.40;;;2.70;1.00;;;;;;5028137;28;20714;-71
2020/12/09 02:25:55;;;;;;;66.03;44.33;;;2.80;1.00;;;;;;5011203;28;20222;-74
2020/12/09 02:28:21;;;;;;;61.45;44.15;;;2.80;1.00;;;;;;5014910;28;20258;-73
2020/12/09 02:30:47;;;;;;;63.75;44.70;;;2.80;1.00;;;;;;5009139;28;20226;-74
2020/12/09 02:33:13;;;;;;;61.65;45.83;;;2.70;1.00;;;;;;5029847;28;20232;-75
2020/12/09 02:35:40;;;;;;;66.30;44.47;;;2.70;1.00;;;;;;5013478;28;20255;-75
2020/12/09 02:38:07;;;;;;;59.22;44.97;;;2.80;1.00;;;;;;5028725;28;20233;-75
2020/12/09 02:40:34;;;;;;;68.05;44.88;;;2.80;1.00;;;;;;5012870;28;21076;-75
2020/12/09 02:43:00;;;;;;;64.95;45.00;;;2.80;1.00;;;;;;5026031;28;20230;-73
2020/12/09 02:45:26;;;;;;;68.93;44.80;;;2.70;1.00;;;;;;5027214;28;20301;-75
2020/12/09 02:47:53;;;;;;;62.75;46.25;;;2.70;1.00;;;;;;5013524;28;20222;-74
2020/12/09 02:50:19;;;;;;;63.90;45.00;;;2.70;1.00;;;;;;5033954;28;20260;-77
2020/12/09 02:52:45;;;;;;;69.68;49.88;;;2.70;1.00;;;;;;5002821;28;20448;-73
2020/12/09 02:55:12;;;;;;;69.30;47.00;;;2.70;1.00;;;;;;5030700;28;20645;-73
2020/12/09 02:57:39;;;;;;;70.28;45.38;;;2.80;1.00;;;;;;5024727;28;20217;-74
2020/12/09 03:00:06;;;;;;;64.32;43.15;;;2.80;1.00;;;;;;5027788;28;20233;-73
2020/12/09 03:02:32;;;;;;;62.40;44.25;;;2.70;1.00;;;;;;5015733;28;20231;-74
2020/12/09 03:04:58;;;;;;;64.63;44.67;;;2.70;1.00;;;;;;5025435;28;21043;-73
2020/12/09 03:07:24;;;;;;;70.93;46.40;;;2.70;1.00;;;;;;5014898;28;20221;-73
2020/12/09 03:09:50;;;;;;;70.25;46.72;;;2.80;1.00;;;;;;5031643;28;20232;-73
2020/12/09 03:12:17;;;;;;;65.75;45.95;;;2.80;1.00;;;;;;5016765;28;20341;-73
2020/12/09 03:14:44;;;;;;;72.55;45.58;;;2.80;1.00;;;;;;5031596;28;20683;-73
2020/12/09 03:17:11;;;;;;;66.53;46.95;;;2.80;1.00;;;;;;5016694;28;20703;-75
2020/12/09 03:19:37;;;;;;;64.95;45.17;;;2.70;1.00;;;;;;5025293;28;20409;-72
2020/12/09 03:22:03;;;;;;;67.13;46.70;;;2.70;1.00;;;;;;5011824;28;20229;-73
2020/12/09 03:24:30;;;;;;;70.07;47.30;;;2.80;1.00;;;;;;5027884;28;20601;-72
2020/12/09 03:26:56;;;;;;;65.00;46.00;;;2.80;1.00;;;;;;5011914;28;20226;-75
2020/12/09 03:29:22;;;;;;;67.60;45.95;;;2.80;1.00;;;;;;5013639;28;20703;-74
2020/12/09 03:31:49;;;;;;;75.13;47.80;;;2.80;1.00;;;;;;5028198;28;20277;-74
2020/12/09 03:34:15;;;;;;;63.35;45.58;;;2.80;1.00;;;;;;5017947;28;20235;-74
2020/12/09 03:36:41;;;;;;;72.22;49.28;;;2.70;1.00;;;;;;5035976;28;20222;-76
2020/12/09 03:39:07;;;;;;;71.63;46.35;;;2.70;1.00;;;;;;5014070;28;21390;-74
2020/12/09 03:41:33;;;;;;;75.00;51.25;;;2.70;1.00;;;;;;5036794;28;20280;-73
2020/12/09 03:44:00;;;;;;;72.35;49.88;;;2.70;1.00;;;;;;5018252;28;20223;-73
2020/12/09 03:46:26;;;;;;;71.60;47.58;;;2.70;1.00;;;;;;5031735;28;20308;-74
2020/12/09 03:48:53;;;;;;;66.75;45.92;;;2.70;1.00;;;;;;5014426;28;20230;-75
2020/12/09 03:51:19;;;;;;;71.05;47.90;;;2.70;1.00;;;;;;5032002;28;20230;-71
2020/12/09 03:53:45;;;;;;;70.20;44.08;;;2.70;1.00;;;;;;5015412;28;20277;-75
2020/12/09 03:56:11;;;;;;;74.50;48.03;;;2.70;1.00;;;;;;5026045;28;20231;-71
2020/12/09 03:58:37;;;;;;;72.05;47.95;;;2.70;1.00;;;;;;5019514;28;20734;-74
2020/12/09 04:01:03;;;;;;;65.78;45.38;;;2.70;1.00;;;;;;5026124;28;20321;-73
2020/12/09 04:03:32;;;;;;;68.75;46.70;;;2.60;1.00;;;;;;5035334;28;20217;-72
2020/12/09 04:05:59;;;;;;;75.18;49.03;;;2.60;1.00;;;;;;5029617;28;20233;-72
2020/12/09 04:08:25;;;;;;;80.18;52.30;;;2.60;1.00;;;;;;5032537;28;20228;-75
2020/12/09 04:10:51;;;;;;;71.47;45.92;;;2.60;1.00;;;;;;5023694;28;20232;-75
2020/12/09 04:13:17;;;;;;;76.30;48.72;;;2.60;1.00;;;;;;5028742;28;20275;-75
2020/12/09 04:15:43;;;;;;;81.70;54.13;;;2.60;1.00;;;;;;5023668;28;20221;-75
2020/12/09 04:18:09;;;;;;;72.03;50.88;;;2.60;1.00;;;;;;5034213;28;20235;-74
2020/12/09 04:20:36;;;;;;;69.70;46.72;;;2.60;1.00;;;;;;5017563;28;20245;-75
2020/12/09 04:23:03;;;;;;;72.95;46.40;;;2.60;1.00;;;;;;5027497;28;20249;-72
2020/12/09 04:25:29;;;;;;;71.97;50.25;;;2.60;1.00;;;;;;5016796;28;20712;-73
2020/12/09 04:27:55;;;;;;;76.03;50.70;;;2.60;1.00;;;;;;5030881;28;20379;-73
2020/12/09 04:30:21;;;;;;;74.82;47.67;;;2.60;1.00;;;;;;5018741;28;20305;-73
2020/12/09 04:32:47;;;;;;;79.03;51.17;;;2.60;1.00;;;;;;5030194;28;20301;-72
2020/12/09 04:35:13;;;;;;;67.20;47.55;;;2.60;1.00;;;;;;5027909;28;20286;-73
2020/12/09 04:37:41;;;;;;;75.15;48.30;;;2.60;1.00;;;;;;5043460;28;20309;-73
2020/12/09 04:40:08;;;;;;;87.60;52.38;;;2.60;1.00;;;;;;5027559;28;20253;-75
2020/12/09 04:42:34;;;;;;;84.28;52.42;;;2.60;1.00;;;;;;5037816;28;20265;-74
2020/12/09 04:45:00;;;;;;;77.40;50.75;;;2.60;1.00;;;;;;5035889;28;20226;-74
2020/12/09 04:47:28;;;;;;;84.35;52.63;;;2.60;1.00;;;;;;5000701;28;20233;-74
2020/12/09 04:50:07;;;;;;;82.22;52.13;;;2.60;1.00;;;;;;5032030;28;20230;-75
2020/12/09 04:52:45;;;;;;;72.53;49.97;;;2.60;1.00;;;;;;5016412;28;20230;-74
2020/12/09 04:55:13;;;;;;;74.55;49.30;;;2.60;1.00;;;;;;5030665;28;20270;-73
2020/12/09 04:57:52;;;;;;;78.72;50.63;;;2.60;1.00;;;;;;5015125;28;20222;-73
2020/12/09 05:00:19;;;;;;;77.55;50.25;;;2.60;1.00;;;;;;5027107;28;20238;-74
2020/12/09 05:02:48;;;;;;;83.78;54.50;;;2.60;1.00;;;;;;5017272;28;20226;-74
2020/12/09 05:05:15;;;;;;;82.30;53.28;;;2.60;1.00;;;;;;5029795;28;20232;-71
2020/12/09 05:07:47;;;;;;;77.28;53.40;;;2.60;1.00;;;;;;5018620;28;20219;-74
2020/12/09 05:10:15;;;;;;;77.53;54.42;;;2.60;1.00;;;;;;5016453;28;20323;-75
2020/12/09 05:12:44;;;;;;;83.35;54.75;;;2.60;1.00;;;;;;5018070;28;20321;-75
2020/12/09 05:15:19;;;;;;;85.07;52.58;;;2.60;1.00;;;;;;5023863;28;20265;-75
2020/12/09 05:18:01;;;;;;;94.32;60.05;;;2.60;1.00;;;;;;5016812;28;20412;-76
2020/12/09 05:20:30;;;;;;;80.47;54.25;;;2.60;1.00;;;;;;5030566;28;20233;-76
2020/12/09 05:22:57;;;;;;;87.18;53.15;;;2.60;1.00;;;;;;5011597;28;20297;-73
2020/12/09 05:25:25;;;;;;;90.55;54.92;;;2.60;1.00;;;;;;5026438;28;20661;-75
2020/12/09 05:27:52;;;;;;;87.43;56.80;;;2.60;1.00;;;;;;5015094;28;20241;-76
2020/12/09 05:30:38;;;;;;;81.68;54.78;;;2.60;1.00;;;;;;5029518;28;20755;-75
2020/12/09 05:33:05;;;;;;;83.03;54.65;;;2.60;1.00;;;;;;5017432;28;20754;-74
2020/12/09 05:35:31;;;;;;;86.43;56.20;;;2.60;1.00;;;;;;5028108;28;20221;-75
2020/12/09 05:38:15;;;;;;;82.65;53.88;;;2.60;1.00;;;;;;5015510;28;20297;-74
2020/12/09 05:40:44;;;;;;;87.10;55.60;;;2.50;1.00;;;;;;5030187;28;20241;-75
2020/12/09 05:43:11;;;;;;;91.13;56.22;;;2.50;1.00;;;;;;5014308;28;20636;-73
2020/12/09 05:45:37;;;;;;;87.80;55.78;;;2.50;1.00;;;;;;5031009;28;20308;-74
2020/12/09 05:48:19;;;;;;;81.75;53.42;;;2.50;1.00;;;;;;5019074;28;20288;-72
2020/12/09 05:50:51;;;;;;;84.32;56.17;;;2.50;1.00;;;;;;5029525;28;20309;-74
2020/12/09 05:53:19;;;;;;;90.75;53.60;;;2.50;1.00;;;;;;5016520;28;20284;-74
2020/12/09 05:55:47;;;;;;;80.90;52.97;;;2.50;1.00;;;;;;5030680;28;21111;-74
2020/12/09 05:58:21;;;;;;;75.93;54.55;;;2.50;1.00;;;;;;5015919;28;20230;-74
2020/12/09 06:01:09;;;;;;;85.10;56.28;;;2.50;1.00;;;;;;5024613;28;20314;-71
2020/12/09 06:03:36;;;;;;;79.35;51.75;;;2.50;1.00;;;;;;5014388;28;21304;-74
2020/12/09 06:06:11;;;;;;;87.40;62.53;;;2.50;1.00;;;;;;5031604;28;20413;-73
2020/12/09 06:08:39;;;;;;;85.05;57.83;;;2.50;1.00;;;;;;5025159;28;20236;-73
2020/12/09 06:11:07;;;;;;;83.88;54.60;;;2.60;1.00;;;;;;5038282;28;20316;-72
2020/12/09 06:13:34;;;;;;;85.90;55.95;;;2.60;1.00;;;;;;5032572;28;20317;-72
2020/12/09 06:16:02;;;;;;;84.53;56.08;;;2.60;1.00;;;;;;5034305;28;20229;-72
2020/12/09 06:18:30;;;;;;;85.38;55.38;;;2.60;1.00;;;;;;5042261;28;20235;-70
2020/12/09 06:20:56;;;;;;;83.97;54.60;;;2.50;1.00;;;;;;5015071;28;20237;-74
2020/12/09 06:23:23;;;;;;;85.07;53.67;;;2.50;1.00;;;;;;5033539;28;20222;-74
2020/12/09 06:25:49;;;;;;;85.97;56.05;;;2.50;1.00;;;;;;5022014;28;20214;-75
2020/12/09 06:28:18;;;;;;;82.45;54.10;;;2.50;1.00;;;;;;5034961;28;20253;-73
2020/12/09 06:30:44;;;;;;;80.95;53.42;;;2.50;1.00;;;;;;5029927;28;20218;-72
2020/12/09 06:33:12;;;;;;;86.22;53.90;;;2.50;1.00;;;;;;5030948;28;20226;-75
2020/12/09 06:35:39;;;;;;;74.88;53.72;;;2.50;1.00;;;;;;5012406;28;20234;-74
2020/12/09 06:38:16;;;;;;;89.78;56.38;;;2.60;1.00;;;;;;5031830;28;20219;-74
2020/12/09 06:41:22;;;;;;;80.55;53.80;;;2.50;1.00;;;;;;5028898;28;20336;-73
2020/12/09 06:44:05;;;;;;;89.18;53.22;;;2.50;1.00;;;;;;5041680;28;20226;-73
2020/12/09 06:46:37;;;;;;;91.13;61.72;;;2.60;1.00;;;;;;5031071;28;20494;-72
2020/12/09 06:49:04;;;;;;;89.43;59.00;;;2.60;1.00;;;;;;5037290;28;20226;-73
2020/12/09 06:51:37;;;;;;;86.30;55.25;;;2.60;1.00;;;;;;5041542;28;20225;-73
2020/12/09 06:54:14;;;;;;;83.45;56.47;;;2.50;1.00;;;;;;5051693;28;21094;-71
2020/12/09 06:56:41;;;;;;;85.82;54.08;;;2.50;1.00;;;;;;5046790;28;20264;-73
2020/12/09 06:59:28;;;;;;;82.20;55.83;;;2.60;1.00;;;;;;5059790;28;20222;-73
2020/12/09 07:01:59;;;;;;;80.97;53.90;;;2.50;1.00;;;;;;5040217;28;20222;-73
2020/12/09 07:05:04;;;;;;;85.38;54.00;;;2.50;1.00;;;;;;5021546;28;20293;-74
2020/12/09 07:07:33;;;;;;;86.68;55.53;;;2.50;1.00;;;;;;5030491;28;20221;-75
2020/12/09 07:10:00;;;;;;;86.82;56.83;;;2.50;1.00;;;;;;5045164;28;20320;-73
2020/12/09 07:12:27;;;;;;;88.80;58.25;;;2.50;1.00;;;;;;5032653;28;20941;-74
2020/12/09 07:14:57;;;;;;;87.10;55.50;;;2.50;1.00;;;;;;5044411;28;20280;-74
2020/12/09 07:17:25;;;;;;;92.15;56.55;;;2.60;1.00;;;;;;5039632;28;20213;-73
2020/12/09 07:19:52;;;;;;;81.40;55.20;;;2.50;1.00;;;;;;5037562;28;20253;-75
2020/12/09 07:22:18;;;;;;;85.20;54.92;;;2.50;1.00;;;;;;5034119;28;20395;-73
2020/12/09 07:24:44;;;;;;;81.22;55.53;;;2.40;1.00;;;;;;5040451;28;20226;-75
2020/12/09 07:27:12;;;;;;;83.78;55.13;;;2.50;1.00;;;;;;5013111;28;20226;-73
2020/12/09 07:29:39;;;;;;;81.75;55.35;;;2.50;1.00;;;;;;5017206;28;20211;-75
2020/12/09 07:32:07;;;;;;;76.40;51.78;;;2.40;1.00;;;;;;5025393;28;20241;-75
2020/12/09 07:34:34;;;;;;;84.47;58.60;;;2.40;1.00;;;;;;5036610;28;20226;-72
2020/12/09 07:37:00;;;;;;;78.97;52.47;;;2.40;1.00;;;;;;5023748;28;20220;-72
2020/12/09 07:39:29;;;;;;;81.90;51.83;;;2.30;1.00;;;;;;5011120;28;20272;-73
2020/12/09 07:41:57;;;;;;;83.38;53.25;;;2.30;1.00;;;;;;5037668;28;20234;-74
2020/12/09 07:44:24;;;;;;;80.72;52.67;;;2.30;1.00;;;;;;5029576;28;20221;-74
2020/12/09 07:46:55;;;;;;;77.22;52.75;;;2.30;1.00;;;;;;5009693;28;20276;-73
2020/12/09 07:49:23;;;;;;;83.45;52.50;;;2.40;1.00;;;;;;5021009;28;20230;-74
2020/12/09 07:51:51;;;;;;;90.00;53.53;;;2.40;1.00;;;;;;5036516;28;20222;-74
2020/12/09 07:54:18;;;;;;;81.18;50.60;;;2.40;1.00;;;;;;5022989;28;20277;-74
2020/12/09 07:56:45;;;;;;;85.43;54.05;;;2.30;1.00;;;;;;5034572;28;20218;-74
2020/12/09 07:59:12;;;;;;;77.20;55.58;;;2.40;1.00;;;;;;5018999;28;20440;-73
2020/12/09 08:01:38;;;;;;;76.45;54.28;;;2.40;1.00;;;;;;5031288;28;20474;-76
2020/12/09 08:04:05;;;;;;;83.38;52.55;;;2.50;1.00;;;;;;5019050;28;20308;-72
2020/12/09 08:06:33;;;;;;;79.18;51.78;;;2.50;1.00;;;;;;5027716;28;20218;-72
2020/12/09 08:09:12;;;;;;;83.40;51.05;;;2.50;1.00;;;;;;5020602;28;20718;-74
2020/12/09 08:11:40;;;;;;;77.15;52.55;;;2.50;1.00;;;;;;5033963;28;20386;-74
2020/12/09 08:14:06;;;;;;;79.57;55.05;;;2.50;1.00;;;;;;5020916;28;20984;-74
2020/12/09 08:16:32;;;;;;;81.57;53.03;;;2.50;1.00;;;;;;5036060;28;20317;-73
2020/12/09 08:19:06;;;;;;;76.00;51.05;;;2.50;1.00;;;;;;5010037;28;20660;-74
2020/12/09 08:21:34;;;;;;;73.38;49.92;;;2.50;1.00;;;;;;5030168;28;20233;-74
2020/12/09 08:24:09;;;;;;;73.70;47.78;;;2.50;1.00;;;;;;5007854;28;20222;-72
2020/12/09 09:47:25;;;;;;;72.38;48.80;;;3.00;1.00;;;;;;5110652;27;20236;-72
2020/12/09 09:49:51;;;;;;;75.00;49.88;;;3.00;1.00;;;;;;5147592;27;20232;-72
2020/12/09 09:52:17;;;;;;;64.38;47.75;;;3.00;1.00;;;;;;5115259;27;20262;-73
2020/12/09 09:54:43;;;;;;;73.13;48.45;;;3.00;1.00;;;;;;5026680;28;20849;-73
2020/12/09 09:57:09;;;;;;;68.63;46.27;;;3.00;1.00;;;;;;4948727;28;20240;-74
2020/12/09 10:04:38;;;;;;;71.40;47.58;;;2.90;1.00;;;;;;5160266;27;20551;-74
2020/12/09 10:07:04;;;;;;;74.20;48.38;;;2.90;1.00;;;;;;5126505;27;20242;-72
2020/12/09 10:09:30;;;;;;;67.47;47.33;;;3.00;1.00;;;;;;5104537;27;20212;-73
2020/12/09 10:11:58;;;;;;;68.27;48.50;;;3.10;1.00;;;;;;5027211;28;20456;-75
2020/12/09 10:14:24;;;;;;;65.80;48.60;;;3.20;1.00;;;;;;4977367;28;20565;-72
2020/12/09 10:16:51;;;;;;;70.37;48.70;;;3.30;1.00;;;;;;4878523;28;20271;-73
2020/12/09 10:19:17;;;;;;;66.68;47.92;;;3.30;1.00;;;;;;4756645;29;20767;-73
2020/12/09 10:26:47;;;;;;;72.88;48.33;;;3.30;1.00;;;;;;5170217;27;20520;-75
2020/12/09 10:29:14;;;;;;;70.32;49.70;;;3.30;1.00;;;;;;5156243;27;20712;-74
2020/12/09 10:31:41;;;;;;;64.78;45.38;;;3.30;1.00;;;;;;5054859;27;787509;-73
2020/12/09 10:34:09;;;;;;;66.82;47.92;;;3.40;1.00;;;;;;5051244;28;20224;-72
2020/12/09 10:36:36;;;;;;;68.25;46.28;;;3.40;1.00;;;;;;5076095;28;20235;-72
2020/12/09 10:39:04;;;;;;;66.13;46.22;;;3.40;1.00;;;;;;5052017;28;20221;-74
2020/12/09 10:41:30;;;;;;;67.38;46.13;;;3.40;1.00;;;;;;5072814;28;21197;-73
2020/12/09 10:43:57;;;;;;;65.28;45.75;;;3.40;1.00;;;;;;5063668;28;20227;-74
2020/12/09 10:46:31;;;;;;;69.88;47.17;;;3.40;1.00;;;;;;5073768;28;20267;-73
2020/12/09 10:48:57;;;;;;;66.35;46.20;;;3.40;1.00;;;;;;5070928;28;20223;-73
2020/12/09 10:51:23;;;;;;;70.90;46.88;;;3.40;1.00;;;;;;5070129;28;20224;-74
2020/12/09 10:53:49;;;;;;;72.60;47.28;;;3.40;1.00;;;;;;5074092;28;20828;-75
2020/12/09 10:56:22;;;;;;;66.55;48.00;;;3.60;1.00;;;;;;5074018;28;20387;-73
2020/12/09 10:58:49;;;;;;;65.07;44.25;;;3.60;1.00;;;;;;5080197;28;20324;-73
2020/12/09 11:01:18;;;;;;;65.03;47.42;;;3.60;1.00;;;;;;5074038;28;21007;-75
2020/12/09 11:03:44;;;;;;;64.32;45.75;;;3.50;1.00;;;;;;5076920;28;20228;-71
2020/12/09 11:06:10;;;;;;;71.20;47.38;;;3.50;1.00;;;;;;5073390;28;20347;-72
2020/12/09 11:08:37;;;;;;;63.63;44.92;;;3.60;1.00;;;;;;5080216;28;20279;-75
2020/12/09 11:11:04;;;;;;;74.22;48.22;;;3.70;1.00;;;;;;5083369;28;20404;-74
2020/12/09 11:13:30;;;;;;;65.13;46.58;;;3.80;1.00;;;;;;5077566;28;20343;-73
2020/12/09 11:15:56;;;;;;;58.58;43.70;;;3.80;1.00;;;;;;5082628;28;20783;-74
2020/12/09 11:18:24;;;;;;;64.95;43.90;;;3.80;1.00;;;;;;5084117;28;20388;-74
2020/12/09 11:20:50;;;;;;;62.35;42.75;;;3.80;1.00;;;;;;5094328;28;20212;-74
2020/12/09 11:23:16;;;;;;;65.30;45.60;;;3.80;1.00;;;;;;5103967;28;20216;-75
2020/12/09 11:25:42;;;;;;;110.90;77.15;;;3.80;1.00;;;;;;5107598;28;20212;-74
2020/12/09 11:28:09;;;;;;;62.97;44.22;;;3.80;1.00;;;;;;5108101;28;20337;-73
2020/12/09 11:30:35;;;;;;;69.82;46.45;;;3.70;1.00;;;;;;5107182;28;20212;-75
2020/12/09 11:33:01;;;;;;;64.00;45.58;;;3.80;1.00;;;;;;5127140;27;21037;-73
2020/12/09 11:35:28;;;;;;;59.70;45.28;;;3.80;1.00;;;;;;5129528;27;20250;-73
2020/12/09 11:37:55;;;;;;;62.70;44.42;;;3.80;1.00;;;;;;5110645;27;20230;-73
2020/12/09 11:40:25;;;;;;;59.00;43.38;;;3.70;1.00;;;;;;5101786;27;20251;-73
2020/12/09 11:42:51;;;;;;;58.88;42.30;;;3.70;1.00;;;;;;5097736;27;20247;-73
2020/12/09 11:45:18;;;;;;;65.25;43.65;;;3.80;1.00;;;;;;5100751;27;20231;-73
2020/12/09 11:47:44;;;;;;;66.07;43.83;;;3.80;1.00;;;;;;5094371;27;20215;-73
2020/12/09 11:50:10;;;;;;;62.17;41.22;;;3.80;1.00;;;;;;5098240;27;20222;-75
2020/12/09 11:52:37;;;;;;;61.38;47.08;;;3.80;1.00;;;;;;5093802;27;20302;-74
2020/12/09 11:55:03;;;;;;;79.22;42.28;;;3.80;1.00;;;;;;5092579;27;20649;-74
2020/12/09 11:57:30;;;;;;;61.15;41.55;;;3.80;1.00;;;;;;5093091;27;20287;-74
2020/12/09 11:59:57;;;;;;;68.65;44.72;;;3.80;1.00;;;;;;5098088;27;20216;-73
2020/12/09 12:02:23;;;;;;;62.40;44.35;;;3.90;1.00;;;;;;5094428;27;20231;-74
2020/12/09 12:04:52;;;;;;;69.03;44.45;;;3.90;1.00;;;;;;5093361;27;20324;-72
2020/12/09 12:07:18;;;;;;;59.88;42.42;;;4.00;1.00;;;;;;5096189;27;20235;-75
2020/12/09 12:09:45;;;;;;;63.35;40.58;;;4.00;1.00;;;;;;5096100;27;21529;-74
2020/12/09 12:12:12;;;;;;;62.72;44.00;;;3.90;1.00;;;;;;5097020;27;20276;-74
2020/12/09 12:14:38;;;;;;;64.22;42.88;;;3.90;1.00;;;;;;5101337;27;20331;-74
2020/12/09 12:17:07;;;;;;;51.22;38.63;;;4.00;1.00;;;;;;5095131;27;20224;-73
2020/12/09 12:19:34;;;;;;;67.55;42.47;;;3.90;1.00;;;;;;5090285;27;20216;-74
2020/12/09 12:22:00;;;;;;;63.95;40.95;;;3.90;1.00;;;;;;5097613;27;20227;-76
2020/12/09 12:24:26;;;;;;;52.58;37.53;;;3.90;1.00;;;;;;5082199;28;20339;-75
2020/12/09 12:26:53;;;;;;;60.97;40.42;;;4.00;1.00;;;;;;5096682;27;20227;-76
2020/12/09 12:29:20;;;;;;;63.53;42.30;;;3.90;1.00;;;;;;5097993;27;20297;-74
2020/12/09 12:31:46;;;;;;;62.88;41.83;;;3.90;1.00;;;;;;5099272;27;20219;-73
2020/12/09 12:34:12;;;;;;;54.03;38.45;;;3.90;1.00;;;;;;5078777;28;20235;-74
2020/12/09 12:36:39;;;;;;;64.20;38.90;;;3.80;1.00;;;;;;5075748;28;20220;-73
2020/12/09 12:39:06;;;;;;;57.30;39.50;;;3.80;1.00;;;;;;5097383;27;21216;-73
2020/12/09 12:41:33;;;;;;;58.47;37.17;;;3.80;1.00;;;;;;5099279;27;20254;-73
2020/12/09 12:44:00;;;;;;;61.97;38.58;;;3.80;1.00;;;;;;5101384;28;20308;-74
2020/12/09 12:46:27;;;;;;;59.83;39.63;;;3.70;1.00;;;;;;5098213;27;20322;-73
2020/12/09 12:48:53;;;;;;;56.42;38.40;;;3.70;1.00;;;;;;5076345;27;20287;-73
2020/12/09 12:51:20;;;;;;;59.83;38.67;;;3.60;1.00;;;;;;5095214;27;20227;-72
2020/12/09 12:53:47;;;;;;;55.80;36.83;;;3.50;1.00;;;;;;5079320;28;20343;-73
2020/12/09 12:56:17;;;;;;;65.28;40.45;;;3.60;1.00;;;;;;5082114;28;20220;-72
2020/12/09 12:58:43;;;;;;;58.60;37.85;;;3.50;1.00;;;;;;5083693;28;20318;-73
2020/12/09 13:01:10;;;;;;;68.93;39.97;;;3.50;1.00;;;;;;5071235;28;20322;-74
2020/12/09 13:03:36;;;;;;;59.85;36.83;;;3.50;1.00;;;;;;5094226;27;20305;-73
2020/12/09 13:06:03;;;;;;;53.45;36.08;;;3.50;1.00;;;;;;5102275;27;20234;-75
2020/12/09 13:08:29;;;;;;;52.55;36.15;;;3.60;1.00;;;;;;5104357;28;20919;-74
2020/12/09 13:10:55;;;;;;;60.75;36.33;;;3.50;1.00;;;;;;5110489;28;20226;-74
2020/12/09 13:13:21;;;;;;;56.08;36.75;;;3.50;1.00;;;;;;5087092;28;20243;-75
2020/12/09 13:15:48;;;;;;;53.63;35.45;;;3.50;1.00;;;;;;5117211;28;20212;-75
2020/12/09 13:18:15;;;;;;;61.63;39.88;;;3.50;1.00;;;;;;5101026;28;20223;-74
2020/12/09 13:20:41;;;;;;;56.25;36.75;;;3.50;1.00;;;;;;5118186;27;20290;-75
2020/12/09 13:23:08;;;;;;;61.97;38.58;;;3.50;1.00;;;;;;5083871;28;20353;-74
2020/12/09 13:25:34;;;;;;;58.15;38.28;;;3.50;1.00;;;;;;5097937;28;20301;-74
2020/12/09 13:28:00;;;;;;;69.35;41.30;;;3.50;1.00;;;;;;5099405;27;20350;-73
2020/12/09 13:30:26;;;;;;;60.13;40.35;;;3.50;1.00;;;;;;5086253;27;20227;-75
2020/12/09 13:32:52;;;;;;;58.55;37.70;;;3.60;1.00;;;;;;5096881;28;20223;-74
2020/12/09 13:35:20;;;;;;;55.53;35.72;;;3.60;1.00;;;;;;5081110;28;20252;-74
2020/12/09 13:37:46;;;;;;;70.57;41.70;;;3.60;1.00;;;;;;5102763;27;20220;-75
2020/12/09 13:40:12;;;;;;;60.15;39.25;;;3.60;1.00;;;;;;5082304;28;20735;-75
2020/12/09 13:42:38;;;;;;;61.78;40.00;;;3.50;1.00;;;;;;5099519;28;20348;-74
2020/12/09 13:45:04;;;;;;;60.78;37.38;;;3.50;1.00;;;;;;5078952;27;20321;-74
2020/12/09 13:47:31;;;;;;;61.08;38.13;;;3.40;1.00;;;;;;5107937;27;20301;-76
2020/12/09 13:49:57;;;;;;;60.30;38.63;;;3.40;1.00;;;;;;5084842;28;23935;-74
2020/12/09 13:52:24;;;;;;;60.17;40.92;;;3.40;1.00;;;;;;5081103;28;20331;-75
2020/12/09 13:54:50;;;;;;;62.47;40.28;;;3.40;1.00;;;;;;5083311;28;20215;-73
2020/12/09 13:57:17;;;;;;;60.72;42.30;;;3.40;1.00;;;;;;5107990;27;20276;-74
2020/12/09 13:59:43;;;;;;;61.08;41.00;;;3.40;1.00;;;;;;5083908;28;20344;-74
2020/12/09 14:02:09;;;;;;;65.43;42.63;;;3.40;1.00;;;;;;5100754;28;20224;-74
2020/12/09 14:04:35;;;;;;;58.97;40.45;;;3.50;1.00;;;;;;5091319;27;20223;-75
2020/12/09 14:07:01;;;;;;;62.85;38.95;;;3.50;1.00;;;;;;5096572;28;20235;-75
2020/12/09 14:09:28;;;;;;;66.13;41.38;;;3.50;1.00;;;;;;5084024;27;20710;-74
2020/12/09 14:11:55;;;;;;;67.53;40.25;;;3.50;1.00;;;;;;5104478;28;20242;-72
2020/12/09 14:14:21;;;;;;;63.03;40.22;;;3.40;1.00;;;;;;5126224;27;20205;-75
2020/12/09 14:16:48;;;;;;;65.47;36.88;;;3.40;1.00;;;;;;5097352;28;21168;-74
2020/12/09 14:19:17;;;;;;;65.32;41.22;;;3.40;1.00;;;;;;5112167;28;20378;-72
2020/12/09 14:21:44;;;;;;;63.28;39.53;;;3.40;1.00;;;;;;5073667;28;21133;-73